createdAt,value
2023-03-19T00:00:48.686Z,8.70
2023-03-19T00:03:21.363Z,8.98
2023-03-19T00:05:54.460Z,9.98
2023-03-19T00:08:27.115Z,9.48
2023-03-19T00:10:59.866Z,9.48
2023-03-19T00:13:33.849Z,9.88
2023-03-19T00:16:07.167Z,11.87
2023-03-19T00:18:39.789Z,13.43
2023-03-19T00:21:12.467Z,12.43
2023-03-19T00:23:45.216Z,15.32
2023-03-19T00:26:18.202Z,12.10
2023-03-19T00:28:52.855Z,12.40
2023-03-19T00:31:27.067Z,13.05
2023-03-19T00:33:59.880Z,13.70
2023-03-19T00:36:32.765Z,13.52
2023-03-19T00:39:05.553Z,13.00
2023-03-19T00:41:41.071Z,13.65
2023-03-19T00:44:15.061Z,8.48
2023-03-19T00:46:48.864Z,10.98
2023-03-19T00:49:22.233Z,10.02
2023-03-19T00:51:54.844Z,12.20
2023-03-19T00:54:27.593Z,9.73
2023-03-19T00:57:00.692Z,11.63
2023-03-19T00:59:34.693Z,12.13
2023-03-19T01:02:08.257Z,10.23
2023-03-19T01:04:41.029Z,10.98
2023-03-19T01:07:13.744Z,12.25
2023-03-19T01:09:46.491Z,11.05
2023-03-19T01:12:19.909Z,11.95
2023-03-19T01:14:54.268Z,11.85
2023-03-19T01:17:27.081Z,11.82
2023-03-19T01:19:59.695Z,10.80
2023-03-19T01:22:33.526Z,9.27
2023-03-19T01:25:07.986Z,12.35
2023-03-19T01:27:41.660Z,18.02
2023-03-19T01:30:16.391Z,23.92
2023-03-19T01:33:08.327Z,16.75
2023-03-19T01:36:02.636Z,13.05
2023-03-19T01:38:41.554Z,12.85
2023-03-19T01:41:20.169Z,17.20
2023-03-19T01:43:54.468Z,11.32
2023-03-19T01:46:56.667Z,11.88
2023-03-19T01:49:45.638Z,9.60
2023-03-19T01:52:24.688Z,9.75
2023-03-19T01:55:19.950Z,8.00
2023-03-19T01:57:57.727Z,7.85
2023-03-19T02:01:02.330Z,11.55
2023-03-19T02:03:38.358Z,10.45
2023-03-19T02:06:37.659Z,9.13
2023-03-19T02:09:10.623Z,9.07
2023-03-19T02:11:44.054Z,13.95
2023-03-19T02:14:16.801Z,12.05
2023-03-19T02:16:49.490Z,9.88
2023-03-19T02:19:26.486Z,11.10
2023-03-19T02:22:00.226Z,8.50
2023-03-19T02:24:34.106Z,10.75
2023-03-19T02:27:15.022Z,15.10
2023-03-19T02:29:51.902Z,7.40
2023-03-19T02:32:27.002Z,10.02
2023-03-19T02:34:59.605Z,11.02
2023-03-19T02:37:33.755Z,8.65
2023-03-19T02:40:08.867Z,11.45
2023-03-19T02:45:15.834Z,9.60
2023-03-19T02:47:48.395Z,9.63
2023-03-19T02:50:21.214Z,9.63
2023-03-19T02:52:54.764Z,9.73
2023-03-19T02:55:27.901Z,12.52
2023-03-19T02:58:00.851Z,10.43
2023-03-19T03:00:36.171Z,10.48
2023-03-19T03:03:09.450Z,12.20
2023-03-19T03:05:42.243Z,10.15
2023-03-19T03:08:14.881Z,10.65
2023-03-19T03:10:47.466Z,10.32
2023-03-19T03:13:20.090Z,11.85
2023-03-19T03:15:54.501Z,9.18
2023-03-19T03:18:27.633Z,11.45
2023-03-19T03:21:00.225Z,13.73
2023-03-19T03:23:33.458Z,11.88
2023-03-19T03:26:06.694Z,12.57
2023-03-19T03:28:39.363Z,11.55
2023-03-19T03:31:13.632Z,13.23
2023-03-19T03:33:54.002Z,12.53
2023-03-19T03:36:27.348Z,13.77
2023-03-19T03:39:00.734Z,15.07
2023-03-19T03:41:34.054Z,14.25
2023-03-19T03:44:08.424Z,12.30
2023-03-19T03:46:45.318Z,13.68
2023-03-19T03:49:17.985Z,13.07
2023-03-19T03:51:50.596Z,15.50
2023-03-19T03:54:23.379Z,12.75
2023-03-19T03:56:56.157Z,10.80
2023-03-19T03:59:29.073Z,12.63
2023-03-19T04:02:03.718Z,11.30
2023-03-19T04:04:36.525Z,14.52
2023-03-19T04:07:09.530Z,8.98
2023-03-19T04:09:47.887Z,13.57
2023-03-19T04:12:20.864Z,10.35
2023-03-19T04:14:53.773Z,12.65
2023-03-19T04:17:29.154Z,12.55
2023-03-19T04:20:01.817Z,12.57
2023-03-19T04:22:34.795Z,9.65
2023-03-19T04:25:08.162Z,8.30
2023-03-19T04:27:41.861Z,6.50
2023-03-19T04:30:15.762Z,7.22
2023-03-19T04:32:49.758Z,10.32
2023-03-19T04:35:22.794Z,12.73
2023-03-19T04:37:55.907Z,17.00
2023-03-19T04:40:29.110Z,10.73
2023-03-19T04:43:01.711Z,8.50
2023-03-19T04:45:38.105Z,8.82
2023-03-19T04:48:13.120Z,7.90
2023-03-19T04:50:47.049Z,8.18
2023-03-19T04:53:20.704Z,9.27
2023-03-19T04:55:53.734Z,11.00
2023-03-19T04:58:26.473Z,10.57
2023-03-19T05:01:05.295Z,9.70
2023-03-19T05:04:06.028Z,14.52
2023-03-19T05:06:40.716Z,9.73
2023-03-19T05:09:13.746Z,12.07
2023-03-19T05:11:46.850Z,9.55
2023-03-19T05:14:24.339Z,8.27
2023-03-19T05:17:12.381Z,11.65
2023-03-19T05:19:59.041Z,10.25
2023-03-19T05:22:31.996Z,12.57
2023-03-19T05:25:05.134Z,12.15
2023-03-19T05:27:37.755Z,11.93
2023-03-19T05:30:13.210Z,11.65
2023-03-19T05:33:00.909Z,12.13
2023-03-19T05:35:42.258Z,12.48
2023-03-19T05:38:23.128Z,16.30
2023-03-19T05:41:07.474Z,12.80
2023-03-19T05:43:51.252Z,15.07
2023-03-19T05:46:39.619Z,17.92
2023-03-19T05:49:12.393Z,13.18
2023-03-19T05:51:46.540Z,16.92
2023-03-19T05:54:19.237Z,14.83
2023-03-19T05:56:59.468Z,16.52
2023-03-19T05:59:42.154Z,16.45
2023-03-19T06:02:38.383Z,13.30
2023-03-19T06:05:26.887Z,12.02
2023-03-19T06:08:05.481Z,14.25
2023-03-19T06:10:51.723Z,12.13
2023-03-19T06:13:24.324Z,13.13
2023-03-19T06:16:11.412Z,11.68
2023-03-19T06:19:00.730Z,13.07
2023-03-19T06:21:33.380Z,13.23
2023-03-19T06:24:10.500Z,15.70
2023-03-19T06:29:20.579Z,14.30
2023-03-19T06:31:58.372Z,18.25
2023-03-19T06:34:48.170Z,23.00
2023-03-19T06:37:21.351Z,17.80
2023-03-19T06:39:55.412Z,18.98
2023-03-19T06:42:28.013Z,17.20
2023-03-19T06:45:01.202Z,16.85
2023-03-19T06:47:33.881Z,17.27
2023-03-19T06:50:07.004Z,14.18
2023-03-19T06:52:39.605Z,11.55
2023-03-19T06:55:13.579Z,14.38
2023-03-19T06:57:49.106Z,15.03
2023-03-19T07:00:21.929Z,12.93
2023-03-19T07:02:54.594Z,13.15
2023-03-19T07:05:27.148Z,14.20
2023-03-19T07:07:59.782Z,6.85
2023-03-19T07:10:33.963Z,8.52
2023-03-19T07:13:06.826Z,10.05
2023-03-19T07:15:39.451Z,9.90
2023-03-19T07:18:12.222Z,11.05
2023-03-19T07:20:44.824Z,11.27
2023-03-19T07:23:17.438Z,14.60
2023-03-19T07:25:51.388Z,16.10
2023-03-19T07:28:23.967Z,12.93
2023-03-19T07:30:56.536Z,7.90
2023-03-19T07:33:29.099Z,13.93
2023-03-19T07:36:01.824Z,9.88
2023-03-19T07:38:34.508Z,10.23
2023-03-19T07:41:08.716Z,13.27
2023-03-19T07:43:41.565Z,11.80
2023-03-19T07:46:14.529Z,15.07
2023-03-19T07:48:47.124Z,12.43
2023-03-19T07:51:19.715Z,9.50
2023-03-19T07:53:52.283Z,10.40
2023-03-19T07:56:26.735Z,12.05
2023-03-19T07:58:59.713Z,14.52
2023-03-19T08:01:32.351Z,10.15
2023-03-19T08:04:05.219Z,13.18
2023-03-19T08:06:38.423Z,13.35
2023-03-19T08:09:10.984Z,15.20
2023-03-19T08:11:45.425Z,13.48
2023-03-19T08:14:22.293Z,13.68
2023-03-19T08:16:55.122Z,12.02
2023-03-19T08:19:28.120Z,12.70
2023-03-19T08:22:00.748Z,11.27
2023-03-19T08:24:33.379Z,12.88
2023-03-19T08:27:07.812Z,14.23
2023-03-19T08:29:40.501Z,11.30
2023-03-19T08:32:13.234Z,7.93
2023-03-19T08:34:48.980Z,13.27
2023-03-19T08:37:22.143Z,13.88
2023-03-19T08:39:54.786Z,12.35
2023-03-19T08:42:28.878Z,12.98
2023-03-19T08:45:01.748Z,10.75
2023-03-19T08:47:34.418Z,11.10
2023-03-19T08:50:07.845Z,7.68
2023-03-19T08:52:41.057Z,10.85
2023-03-19T08:55:13.715Z,9.10
2023-03-19T08:57:47.663Z,11.00
2023-03-19T09:00:20.665Z,14.13
2023-03-19T09:02:53.259Z,15.05
2023-03-19T09:05:28.031Z,9.63
2023-03-19T09:08:01.933Z,10.25
2023-03-19T09:10:34.824Z,8.98
2023-03-19T09:13:08.885Z,7.32
2023-03-19T09:15:41.477Z,10.27
2023-03-19T09:18:14.098Z,9.25
2023-03-19T09:20:46.748Z,9.57
2023-03-19T09:23:19.460Z,9.85
2023-03-19T09:25:53.033Z,7.93
2023-03-19T09:28:27.127Z,9.45
2023-03-19T09:30:59.806Z,10.68
2023-03-19T09:33:32.620Z,8.43
2023-03-19T09:36:05.673Z,11.23
2023-03-19T09:38:39.200Z,14.48
2023-03-19T09:41:14.853Z,13.35
2023-03-19T09:43:58.619Z,13.90
2023-03-19T09:46:34.915Z,13.30
2023-03-19T09:49:14.739Z,14.50
2023-03-19T09:51:49.604Z,11.35
2023-03-19T09:54:28.266Z,12.63
2023-03-19T09:57:01.000Z,16.50
2023-03-19T09:59:35.255Z,10.20
2023-03-19T10:02:24.833Z,12.48
2023-03-19T10:05:05.286Z,12.43
2023-03-19T10:07:53.023Z,12.43
2023-03-19T10:10:36.682Z,11.48
2023-03-19T10:13:14.697Z,11.40
2023-03-19T10:15:50.535Z,14.55
2023-03-19T10:18:26.455Z,15.50
2023-03-19T10:21:00.610Z,15.85
2023-03-19T10:23:40.002Z,15.43
2023-03-19T10:26:13.940Z,14.20
2023-03-19T10:28:51.059Z,15.53
2023-03-19T10:31:28.052Z,12.70
2023-03-19T10:34:11.008Z,11.98
2023-03-19T10:36:43.747Z,13.77
2023-03-19T10:39:16.989Z,11.75
2023-03-19T10:41:52.986Z,14.45
2023-03-19T10:44:30.058Z,13.10
2023-03-19T10:47:12.783Z,14.20
2023-03-19T10:49:45.466Z,14.30
2023-03-19T10:52:23.573Z,13.55
2023-03-19T10:54:57.244Z,15.15
2023-03-19T10:57:31.701Z,15.30
2023-03-19T11:00:06.461Z,13.90
2023-03-19T11:02:47.286Z,13.93
2023-03-19T11:05:31.768Z,11.57
2023-03-19T11:08:06.301Z,12.10
2023-03-19T11:10:46.334Z,10.63
2023-03-19T11:13:22.375Z,10.70
2023-03-19T11:15:56.220Z,11.38
2023-03-19T11:18:31.697Z,12.53
2023-03-19T11:21:07.376Z,9.80
2023-03-19T11:23:41.016Z,10.95
2023-03-19T11:26:19.771Z,12.00
2023-03-19T11:28:52.408Z,12.98
2023-03-19T11:31:28.809Z,11.35
2023-03-19T11:34:08.540Z,12.93
2023-03-19T11:36:46.576Z,11.93
2023-03-19T11:39:23.530Z,14.40
2023-03-19T11:42:03.790Z,14.10
2023-03-19T11:44:42.214Z,16.00
2023-03-19T11:47:27.097Z,17.10
2023-03-19T11:52:37.108Z,16.90
2023-03-19T11:55:16.054Z,18.02
2023-03-19T11:57:56.650Z,13.45
2023-03-19T12:00:32.116Z,15.57
2023-03-19T12:03:19.638Z,15.93
2023-03-19T12:05:56.143Z,15.95
2023-03-19T12:08:38.004Z,16.50
2023-03-19T12:11:24.625Z,15.63
2023-03-19T12:14:02.851Z,17.38
2023-03-19T12:16:46.461Z,17.42
2023-03-19T12:19:24.959Z,18.48
2023-03-19T12:22:04.086Z,16.35
2023-03-19T12:24:43.867Z,16.48
2023-03-19T12:27:22.983Z,16.50
2023-03-19T12:29:58.488Z,16.88
2023-03-19T12:32:37.868Z,16.73
2023-03-19T12:35:13.771Z,15.30
2023-03-19T12:37:50.495Z,17.05
2023-03-19T12:40:27.732Z,17.88
2023-03-19T12:43:02.055Z,14.40
2023-03-19T12:45:36.223Z,15.57
2023-03-19T12:48:12.186Z,19.42
2023-03-19T12:50:46.844Z,20.42
2023-03-19T12:53:23.557Z,20.08
2023-03-19T12:55:59.359Z,16.92
2023-03-19T12:58:38.489Z,16.40
2023-03-19T13:01:14.558Z,17.30
2023-03-19T13:03:51.083Z,15.80
2023-03-19T13:06:25.429Z,17.15
2023-03-19T13:09:03.534Z,16.95
2023-03-19T13:11:44.273Z,12.60
2023-03-19T13:14:20.687Z,10.40
2023-03-19T13:16:56.621Z,12.05
2023-03-19T13:19:31.147Z,11.68
2023-03-19T13:22:06.841Z,11.02
2023-03-19T13:24:41.013Z,13.48
2023-03-19T13:27:19.343Z,11.05
2023-03-19T13:29:59.307Z,11.05
2023-03-19T13:32:38.409Z,9.40
2023-03-19T13:35:26.678Z,11.55
2023-03-19T13:38:00.998Z,9.75
2023-03-19T13:40:38.908Z,9.43
2023-03-19T13:43:30.416Z,8.50
2023-03-19T13:46:06.460Z,8.18
2023-03-19T13:48:39.898Z,7.93
2023-03-19T13:51:25.131Z,9.32
2023-03-19T13:54:08.259Z,5.95
2023-03-19T13:56:55.800Z,6.72
2023-03-19T13:59:29.547Z,7.25
2023-03-19T14:02:04.576Z,8.43
2023-03-19T14:04:38.295Z,8.23
2023-03-19T14:07:12.566Z,7.75
2023-03-19T14:09:46.014Z,8.02
2023-03-19T14:12:23.570Z,7.78
2023-03-19T14:14:57.113Z,8.20
2023-03-19T14:17:34.356Z,7.75
2023-03-19T14:20:28.057Z,7.07
2023-03-19T14:23:23.315Z,6.90
2023-03-19T14:26:06.432Z,7.63
2023-03-19T14:28:46.961Z,6.68
2023-03-19T14:31:30.069Z,8.38
2023-03-19T14:34:07.181Z,7.40
2023-03-19T14:36:42.464Z,7.00
2023-03-19T14:39:21.508Z,6.05
2023-03-19T14:41:59.385Z,7.10
2023-03-19T14:44:53.145Z,7.15
2023-03-19T14:47:31.598Z,7.40
2023-03-19T14:50:16.851Z,5.80
2023-03-19T14:52:52.223Z,6.03
2023-03-19T14:55:33.773Z,6.93
2023-03-19T14:58:07.183Z,6.63
2023-03-19T15:00:42.702Z,6.93
2023-03-19T15:03:20.535Z,5.85
2023-03-19T15:05:57.914Z,6.70
2023-03-19T15:08:32.205Z,5.07
2023-03-19T15:11:13.144Z,5.30
2023-03-19T15:13:56.071Z,4.18
2023-03-19T15:16:32.485Z,4.55
2023-03-19T15:19:08.858Z,4.07
2023-03-19T15:21:43.109Z,4.38
2023-03-19T15:24:15.916Z,3.33
2023-03-19T15:26:48.502Z,4.00
2023-03-19T15:29:31.214Z,7.80
2023-03-19T15:32:06.633Z,3.08
2023-03-19T15:34:42.455Z,4.60
2023-03-19T15:37:16.627Z,3.78
2023-03-19T15:39:51.355Z,3.63
2023-03-19T15:42:25.934Z,4.07
2023-03-19T15:45:02.184Z,4.68
2023-03-19T15:47:35.740Z,3.00
2023-03-19T15:50:12.502Z,3.10
2023-03-19T15:52:49.433Z,3.75
2023-03-19T15:55:22.363Z,4.70
2023-03-19T15:57:56.361Z,4.32
2023-03-19T16:00:29.002Z,4.63
2023-03-19T16:03:01.730Z,3.63
2023-03-19T16:05:34.779Z,6.18
2023-03-19T16:08:16.145Z,3.72
2023-03-19T16:10:48.767Z,3.67
2023-03-19T16:13:28.010Z,3.78
2023-03-19T16:16:04.522Z,3.47
2023-03-19T16:18:45.476Z,3.65
2023-03-19T16:21:18.928Z,3.33
2023-03-19T16:23:54.930Z,4.43
2023-03-19T16:26:30.320Z,4.15
2023-03-19T16:29:18.839Z,6.47
2023-03-19T16:31:52.743Z,5.32
2023-03-19T16:34:26.894Z,5.25
2023-03-19T16:36:59.572Z,5.63
2023-03-19T16:39:34.792Z,3.40
2023-03-19T16:42:15.269Z,3.85
2023-03-19T16:44:48.434Z,4.70
2023-03-19T16:47:21.061Z,3.72
2023-03-19T16:49:53.696Z,3.90
2023-03-19T16:52:26.344Z,3.63
2023-03-19T16:55:00.679Z,3.15
2023-03-19T16:57:33.435Z,3.50
2023-03-19T17:00:06.640Z,4.00
2023-03-19T17:02:39.266Z,5.20
2023-03-19T17:05:13.730Z,4.18
2023-03-19T17:07:46.515Z,9.32
2023-03-19T17:10:21.327Z,6.68
2023-03-19T17:12:55.007Z,6.35
2023-03-19T17:15:29.369Z,4.70
2023-03-19T17:18:02.680Z,6.82
2023-03-19T17:20:36.984Z,4.15
2023-03-19T17:23:11.104Z,3.83
2023-03-19T17:25:45.948Z,3.80
2023-03-19T17:30:51.556Z,3.13
2023-03-19T17:33:25.201Z,4.40
2023-03-19T17:35:58.778Z,5.30
2023-03-19T17:38:33.178Z,5.88
2023-03-19T17:41:12.228Z,5.35
2023-03-19T17:43:45.100Z,4.32
2023-03-19T17:46:19.455Z,5.03
2023-03-19T17:48:52.485Z,6.40
2023-03-19T17:51:25.715Z,6.82
2023-03-19T17:53:58.420Z,5.10
2023-03-19T17:56:32.408Z,5.32
2023-03-19T17:59:05.365Z,4.60
2023-03-19T18:01:38.947Z,8.43
2023-03-19T18:04:13.596Z,4.78
2023-03-19T18:09:20.257Z,6.38
2023-03-19T18:11:54.406Z,7.30
2023-03-19T18:14:28.903Z,6.78
2023-03-19T18:17:01.808Z,7.22
2023-03-19T18:19:36.927Z,7.97
2023-03-19T18:22:13.516Z,4.78
2023-03-19T18:24:46.231Z,5.65
2023-03-19T18:27:24.002Z,3.92
2023-03-19T18:29:56.778Z,4.93
2023-03-19T18:32:32.775Z,4.30
2023-03-19T18:35:06.000Z,3.00
2023-03-19T18:37:38.809Z,7.70
2023-03-19T18:40:14.396Z,5.72
2023-03-19T18:42:48.952Z,8.05
2023-03-19T18:45:21.966Z,6.55
2023-03-19T18:47:54.974Z,6.75
2023-03-19T18:50:29.147Z,6.47
2023-03-19T18:53:01.864Z,6.28
2023-03-19T18:55:34.491Z,7.35
2023-03-19T18:58:08.497Z,5.68
2023-03-19T19:00:41.494Z,3.70
2023-03-19T19:03:15.141Z,7.82
2023-03-19T19:05:53.616Z,7.72
2023-03-19T19:08:26.755Z,10.13
2023-03-19T19:11:03.173Z,10.60
2023-03-19T19:13:53.330Z,9.32
2023-03-19T19:16:31.210Z,10.48
2023-03-19T19:19:04.241Z,11.35
2023-03-19T19:21:36.964Z,13.95
2023-03-19T19:24:09.667Z,12.25
2023-03-19T19:26:42.534Z,11.95
2023-03-19T19:29:19.804Z,12.57
2023-03-19T19:31:53.143Z,10.68
2023-03-19T19:34:25.781Z,16.40
2023-03-19T19:37:00.269Z,15.73
2023-03-19T19:39:32.867Z,15.70
2023-03-19T19:42:05.745Z,15.30
2023-03-19T19:44:40.613Z,14.82
2023-03-19T19:47:14.600Z,13.63
2023-03-19T19:49:47.392Z,17.17
2023-03-19T19:52:20.501Z,14.57
2023-03-19T19:54:53.148Z,15.00
2023-03-19T19:57:25.764Z,13.10
2023-03-19T19:59:59.788Z,11.73
2023-03-19T20:02:32.416Z,15.50
2023-03-19T20:05:05.562Z,12.77
2023-03-19T20:07:38.497Z,28.05
2023-03-19T20:10:12.884Z,18.67
2023-03-19T20:12:47.584Z,16.48
2023-03-19T20:15:23.055Z,14.73
2023-03-19T20:17:56.377Z,12.95
2023-03-19T20:20:30.137Z,15.25
2023-03-19T20:23:03.203Z,12.77
2023-03-19T20:25:37.537Z,14.05
2023-03-19T20:28:14.347Z,13.82
2023-03-19T20:30:48.527Z,15.70
2023-03-19T20:33:21.780Z,15.80
2023-03-19T20:35:54.406Z,17.27
2023-03-19T20:38:29.017Z,16.83
2023-03-19T20:41:01.649Z,13.88
2023-03-19T20:43:37.502Z,14.85
2023-03-19T20:46:12.543Z,17.15
2023-03-19T20:48:45.691Z,17.45
2023-03-19T20:51:19.398Z,18.73
2023-03-19T20:53:52.761Z,15.73
2023-03-19T20:56:25.515Z,13.63
2023-03-19T20:58:58.193Z,16.48
2023-03-19T21:01:32.524Z,19.70
2023-03-19T21:04:05.570Z,16.80
2023-03-19T21:06:52.420Z,20.13
2023-03-19T21:09:26.436Z,18.98
2023-03-19T21:11:59.177Z,20.45
2023-03-19T21:14:32.330Z,14.30
2023-03-19T21:17:06.389Z,20.15
2023-03-19T21:19:40.607Z,15.53
2023-03-19T21:22:16.335Z,20.73
2023-03-19T21:24:49.439Z,22.35
2023-03-19T21:27:23.757Z,17.13
2023-03-19T21:29:56.379Z,19.10
2023-03-19T21:32:31.588Z,19.35
2023-03-19T21:35:04.380Z,20.10
2023-03-19T21:37:39.324Z,16.67
2023-03-19T21:40:14.370Z,20.42
2023-03-19T21:45:23.854Z,18.63
2023-03-19T21:48:01.661Z,18.35
2023-03-19T21:50:35.546Z,17.00
2023-03-19T21:53:09.365Z,20.23
2023-03-19T21:55:42.228Z,17.70
2023-03-19T21:58:16.378Z,17.45
2023-03-19T22:00:49.485Z,21.63
2023-03-19T22:03:24.032Z,20.40
2023-03-19T22:05:56.961Z,19.08
2023-03-19T22:08:29.537Z,18.30
2023-03-19T22:11:02.463Z,18.95
2023-03-19T22:13:35.112Z,18.35
2023-03-19T22:16:10.040Z,24.38
2023-03-19T22:18:44.663Z,21.98
2023-03-19T22:21:18.440Z,18.67
2023-03-19T22:23:51.479Z,18.27
2023-03-19T22:26:31.689Z,18.52
2023-03-19T22:29:06.094Z,18.73
2023-03-19T22:31:38.783Z,17.58
2023-03-19T22:34:14.254Z,21.50
2023-03-19T22:36:47.128Z,19.58
2023-03-19T22:39:19.785Z,19.92
2023-03-19T22:41:52.802Z,19.05
2023-03-19T22:44:27.714Z,21.70
2023-03-19T22:47:01.512Z,21.23
2023-03-19T22:49:35.740Z,26.10
2023-03-19T22:52:09.885Z,24.52
2023-03-19T22:54:43.812Z,27.20
2023-03-19T22:57:16.633Z,25.63
2023-03-19T22:59:49.400Z,21.55
2023-03-19T23:02:22.013Z,28.42
2023-03-19T23:04:55.954Z,29.20
2023-03-19T23:07:28.518Z,30.63
2023-03-19T23:10:01.956Z,30.20
2023-03-19T23:12:34.579Z,28.83
2023-03-19T23:15:07.706Z,29.85
2023-03-19T23:17:41.272Z,30.20
2023-03-19T23:20:16.789Z,27.40
2023-03-19T23:22:49.662Z,36.17
2023-03-19T23:25:24.952Z,32.67
2023-03-19T23:27:59.031Z,34.90
2023-03-19T23:30:33.281Z,35.30
2023-03-19T23:33:05.942Z,38.42
2023-03-19T23:35:40.138Z,30.02
2023-03-19T23:38:13.123Z,21.88
2023-03-19T23:40:46.155Z,23.95
2023-03-19T23:43:21.791Z,27.23
2023-03-19T23:45:55.286Z,26.60
2023-03-19T23:48:31.643Z,26.63
2023-03-19T23:51:06.219Z,21.70
2023-03-19T23:53:38.910Z,25.30
2023-03-19T23:56:18.273Z,25.75
2023-03-19T23:58:51.763Z,28.02
